createdAt,value
2022-12-13T00:01:30.076Z,40.95
2022-12-13T00:04:02.091Z,42.53
2022-12-13T00:06:31.342Z,43.13
2022-12-13T00:08:59.707Z,48.13
2022-12-13T00:11:29.353Z,42.35
2022-12-13T00:13:57.494Z,43.55
2022-12-13T00:16:26.676Z,45.38
2022-12-13T00:18:56.418Z,48.85
2022-12-13T00:21:26.862Z,41.60
2022-12-13T00:23:55.206Z,39.80
2022-12-13T00:26:25.101Z,42.08
2022-12-13T00:28:54.578Z,42.10
2022-12-13T00:34:11.662Z,41.90
2022-12-13T00:36:39.394Z,42.88
2022-12-13T00:39:07.107Z,44.53
2022-12-13T00:41:37.250Z,42.40
2022-12-13T00:44:06.366Z,44.83
2022-12-13T00:46:34.157Z,38.58
2022-12-13T00:49:02.762Z,42.95
2022-12-13T00:51:32.930Z,43.15
2022-12-13T00:54:01.373Z,39.17
2022-12-13T00:56:31.940Z,39.83
2022-12-13T00:58:59.963Z,45.65
2022-12-13T01:01:31.371Z,37.67
2022-12-13T01:04:02.437Z,38.83
2022-12-13T01:06:34.069Z,39.58
2022-12-13T01:09:02.296Z,41.45
2022-12-13T01:11:30.049Z,38.85
2022-12-13T01:13:57.716Z,44.08
2022-12-13T01:16:25.435Z,43.92
2022-12-13T01:18:54.484Z,42.67
2022-12-13T01:21:23.010Z,41.28
2022-12-13T01:23:50.796Z,42.30
2022-12-13T01:26:20.637Z,38.75
2022-12-13T01:28:48.584Z,45.20
2022-12-13T01:31:18.446Z,42.50
2022-12-13T01:33:46.511Z,40.65
2022-12-13T01:36:18.101Z,41.65
2022-12-13T01:38:45.890Z,45.17
2022-12-13T01:41:17.402Z,45.15
2022-12-13T01:43:55.934Z,40.10
2022-12-13T01:46:24.033Z,41.92
2022-12-13T01:48:58.595Z,45.58
2022-12-13T01:51:33.370Z,47.40
2022-12-13T01:54:04.247Z,46.55
2022-12-13T01:56:37.407Z,53.08
2022-12-13T01:59:08.744Z,47.47
2022-12-13T02:01:37.237Z,44.80
2022-12-13T02:04:05.332Z,46.38
2022-12-13T02:06:37.008Z,43.70
2022-12-13T02:09:07.370Z,39.33
2022-12-13T02:11:38.967Z,44.60
2022-12-13T02:14:06.598Z,41.83
2022-12-13T02:16:47.537Z,43.72
2022-12-13T02:19:53.207Z,45.65
2022-12-13T02:22:45.265Z,42.15
2022-12-13T02:25:36.654Z,39.28
2022-12-13T02:28:31.678Z,43.55
2022-12-13T02:31:10.497Z,44.03
2022-12-13T02:33:50.295Z,40.78
2022-12-13T02:36:22.059Z,49.25
2022-12-13T02:38:57.239Z,44.90
2022-12-13T02:41:29.735Z,46.78
2022-12-13T02:44:02.379Z,47.65
2022-12-13T02:46:36.735Z,41.33
2022-12-13T02:49:05.972Z,49.42
2022-12-13T02:51:35.879Z,44.10
2022-12-13T02:54:04.607Z,46.13
2022-12-13T02:56:32.408Z,38.97
2022-12-13T02:59:03.306Z,44.17
2022-12-13T03:01:49.691Z,44.05
2022-12-13T03:04:33.590Z,43.17
2022-12-13T03:07:10.828Z,43.17
2022-12-13T03:09:50.031Z,54.05
2022-12-13T03:12:48.441Z,40.30
2022-12-13T03:15:22.761Z,47.22
2022-12-13T03:17:56.812Z,44.85
2022-12-13T03:20:27.348Z,45.13
2022-12-13T03:22:56.548Z,46.88
2022-12-13T03:25:30.804Z,54.83
2022-12-13T03:28:01.414Z,48.67
2022-12-13T03:30:31.908Z,46.95
2022-12-13T03:33:01.739Z,51.47
2022-12-13T03:35:33.967Z,47.35
2022-12-13T03:38:02.796Z,53.60
2022-12-13T03:40:31.370Z,41.92
2022-12-13T03:42:59.191Z,50.03
2022-12-13T03:45:28.054Z,47.45
2022-12-13T03:47:55.894Z,45.63
2022-12-13T03:50:27.018Z,44.97
2022-12-13T03:52:59.652Z,53.28
2022-12-13T03:55:27.416Z,43.65
2022-12-13T03:57:55.170Z,43.22
2022-12-13T04:00:23.115Z,44.92
2022-12-13T04:02:50.792Z,43.45
2022-12-13T04:05:18.861Z,44.78
2022-12-13T04:07:48.662Z,46.33
2022-12-13T04:10:25.426Z,46.60
2022-12-13T04:13:12.559Z,41.80
2022-12-13T04:15:40.686Z,38.80
2022-12-13T04:18:08.331Z,43.03
2022-12-13T04:20:35.964Z,46.40
2022-12-13T04:23:10.081Z,47.65
2022-12-13T04:25:38.758Z,44.50
2022-12-13T04:28:06.564Z,37.80
2022-12-13T04:30:34.691Z,40.08
2022-12-13T04:33:02.464Z,40.85
2022-12-13T04:35:30.201Z,43.38
2022-12-13T04:37:58.014Z,43.22
2022-12-13T04:40:27.421Z,49.47
2022-12-13T04:42:55.646Z,48.65
2022-12-13T04:45:24.201Z,45.92
2022-12-13T04:47:51.965Z,38.90
2022-12-13T04:50:19.877Z,45.30
2022-12-13T04:52:47.552Z,40.83
2022-12-13T04:55:15.313Z,41.83
2022-12-13T04:57:44.391Z,44.42
2022-12-13T05:00:14.461Z,41.00
2022-12-13T05:02:42.630Z,42.28
2022-12-13T05:05:11.297Z,44.17
2022-12-13T05:07:42.094Z,40.50
2022-12-13T05:10:11.867Z,43.45
2022-12-13T05:12:39.632Z,43.80
2022-12-13T05:15:09.734Z,51.72
2022-12-13T05:17:37.463Z,38.22
2022-12-13T05:20:05.937Z,44.58
2022-12-13T05:22:33.662Z,43.22
2022-12-13T05:25:01.474Z,49.63
2022-12-13T05:27:30.453Z,46.17
2022-12-13T05:30:03.640Z,44.42
2022-12-13T05:32:43.019Z,46.38
2022-12-13T05:35:13.124Z,41.30
2022-12-13T05:37:41.176Z,46.35
2022-12-13T05:40:18.754Z,50.08
2022-12-13T05:42:46.436Z,45.75
2022-12-13T05:45:14.644Z,55.60
2022-12-13T05:47:43.917Z,36.28
2022-12-13T05:50:12.066Z,43.17
2022-12-13T05:52:40.350Z,53.92
2022-12-13T05:55:08.565Z,50.55
2022-12-13T05:57:36.323Z,46.53
2022-12-13T06:00:07.530Z,47.50
2022-12-13T06:02:57.090Z,43.50
2022-12-13T06:05:28.474Z,45.42
2022-12-13T06:07:58.379Z,41.50
2022-12-13T06:10:34.375Z,41.35
2022-12-13T06:13:22.117Z,43.13
2022-12-13T06:15:51.523Z,38.75
2022-12-13T06:18:20.575Z,46.05
2022-12-13T06:20:57.673Z,45.58
2022-12-13T06:23:25.587Z,42.10
2022-12-13T06:25:53.356Z,40.33
2022-12-13T06:28:21.351Z,40.55
2022-12-13T06:30:52.262Z,44.70
2022-12-13T06:33:23.308Z,50.40
2022-12-13T06:35:52.548Z,41.88
2022-12-13T06:38:31.007Z,41.53
2022-12-13T06:41:09.001Z,41.80
2022-12-13T06:43:36.899Z,38.78
2022-12-13T06:46:06.044Z,44.13
2022-12-13T06:48:35.644Z,46.38
2022-12-13T06:51:03.921Z,44.83
2022-12-13T06:53:32.551Z,44.70
2022-12-13T06:56:04.521Z,37.65
2022-12-13T06:58:33.056Z,46.85
2022-12-13T07:01:05.040Z,41.50
2022-12-13T07:03:33.155Z,44.97
2022-12-13T07:06:06.769Z,41.25
2022-12-13T07:08:34.742Z,43.13
2022-12-13T07:11:02.554Z,43.67
2022-12-13T07:13:31.054Z,45.00
2022-12-13T07:16:00.946Z,39.72
2022-12-13T07:18:29.954Z,41.92
2022-12-13T07:20:57.808Z,42.00
2022-12-13T07:23:26.859Z,44.88
2022-12-13T07:25:55.139Z,40.47
2022-12-13T07:28:23.293Z,37.30
2022-12-13T07:30:51.340Z,35.15
2022-12-13T07:33:22.115Z,34.80
2022-12-13T07:35:55.567Z,43.08
2022-12-13T07:38:23.525Z,48.38
2022-12-13T07:40:52.595Z,49.80
2022-12-13T07:43:20.659Z,45.95
2022-12-13T07:45:48.646Z,67.30
2022-12-13T07:48:16.550Z,50.35
2022-12-13T07:50:44.409Z,58.80
2022-12-13T07:53:12.189Z,49.33
2022-12-13T07:55:39.901Z,53.08
2022-12-13T07:58:10.853Z,54.47
2022-12-13T08:00:39.690Z,53.00
2022-12-13T08:03:09.316Z,48.33
2022-12-13T08:05:40.039Z,41.53
2022-12-13T08:08:10.201Z,46.95
2022-12-13T08:10:38.121Z,48.25
2022-12-13T08:13:06.757Z,39.88
2022-12-13T08:15:35.875Z,41.38
2022-12-13T08:18:04.056Z,47.50
2022-12-13T08:20:31.827Z,41.00
2022-12-13T08:23:02.053Z,48.80
2022-12-13T08:25:31.305Z,44.75
2022-12-13T08:28:02.010Z,43.35
2022-12-13T08:30:30.812Z,50.88
2022-12-13T08:33:05.331Z,46.72
2022-12-13T08:35:34.578Z,58.92
2022-12-13T08:38:02.797Z,50.10
2022-12-13T08:40:30.505Z,46.78
2022-12-13T08:42:58.148Z,42.90
2022-12-13T08:45:27.018Z,49.92
2022-12-13T08:47:55.625Z,40.70
2022-12-13T08:50:24.705Z,52.58
2022-12-13T08:52:52.998Z,40.30
2022-12-13T08:55:31.532Z,51.75
2022-12-13T08:58:00.996Z,38.38
2022-12-13T09:00:29.041Z,45.33
2022-12-13T09:03:04.117Z,48.50
2022-12-13T09:05:35.155Z,47.83
2022-12-13T09:08:04.394Z,45.05
2022-12-13T09:10:59.372Z,59.67
2022-12-13T09:13:31.672Z,44.88
2022-12-13T09:16:01.444Z,43.85
2022-12-13T09:18:36.140Z,40.17
2022-12-13T09:21:11.213Z,41.03
2022-12-13T09:23:45.764Z,41.42
2022-12-13T09:26:16.745Z,44.03
2022-12-13T09:28:44.640Z,44.90
2022-12-13T09:31:14.918Z,38.88
2022-12-13T09:33:43.706Z,44.75
2022-12-13T09:36:15.056Z,37.35
2022-12-13T09:38:42.796Z,37.13
2022-12-13T09:41:28.427Z,35.13
2022-12-13T09:44:00.994Z,36.65
2022-12-13T09:46:34.826Z,38.92
2022-12-13T09:49:23.107Z,30.33
2022-12-13T09:52:10.055Z,27.08
2022-12-13T09:54:49.022Z,34.50
2022-12-13T09:57:32.777Z,35.75
2022-12-13T10:00:03.295Z,40.08
2022-12-13T10:02:35.013Z,35.85
2022-12-13T10:05:23.270Z,39.00
2022-12-13T10:07:55.666Z,28.30
2022-12-13T10:10:23.718Z,41.88
2022-12-13T10:12:58.898Z,32.25
2022-12-13T10:15:29.216Z,31.90
2022-12-13T10:17:57.265Z,34.83
2022-12-13T10:20:29.960Z,33.35
2022-12-13T10:23:31.415Z,35.35
2022-12-13T10:25:51.548Z,33.20
2022-12-13T10:28:25.709Z,38.60
2022-12-13T10:30:53.603Z,31.13
2022-12-13T10:33:25.544Z,29.45
2022-12-13T10:36:07.519Z,33.95
2022-12-13T10:38:42.115Z,30.50
2022-12-13T10:41:32.516Z,36.95
2022-12-13T10:44:24.195Z,26.33
2022-12-13T10:47:01.735Z,33.75
2022-12-13T10:49:40.264Z,34.75
2022-12-13T10:52:31.358Z,31.95
2022-12-13T10:55:23.280Z,41.90
2022-12-13T10:57:53.689Z,34.78
2022-12-13T11:00:40.963Z,32.58
2022-12-13T11:03:11.626Z,35.25
2022-12-13T11:05:40.589Z,32.95
2022-12-13T11:08:17.531Z,28.75
2022-12-13T11:10:47.451Z,26.27
2022-12-13T11:13:29.337Z,30.05
2022-12-13T11:15:57.761Z,31.65
2022-12-13T11:18:28.016Z,27.77
2022-12-13T11:20:58.827Z,35.28
2022-12-13T11:23:30.901Z,35.72
2022-12-13T11:26:03.297Z,28.33
2022-12-13T11:28:58.711Z,25.33
2022-12-13T11:31:36.102Z,37.50
2022-12-13T11:34:17.710Z,33.85
2022-12-13T11:36:57.618Z,35.38
2022-12-13T11:39:31.985Z,35.88
2022-12-13T11:42:06.746Z,35.60
2022-12-13T11:44:47.840Z,28.95
2022-12-13T11:47:21.120Z,30.00
2022-12-13T11:49:50.689Z,36.75
2022-12-13T11:52:22.544Z,61.65
2022-12-13T11:54:55.481Z,33.35
2022-12-13T11:57:36.641Z,30.30
2022-12-13T12:00:13.343Z,32.53
2022-12-13T12:02:45.528Z,38.95
2022-12-13T12:05:26.209Z,31.00
2022-12-13T12:08:31.881Z,35.40
2022-12-13T12:10:50.583Z,32.25
2022-12-13T12:13:24.090Z,36.35
2022-12-13T12:16:00.274Z,30.95
2022-12-13T12:18:28.763Z,26.92
2022-12-13T12:21:17.202Z,32.63
2022-12-13T12:24:01.468Z,35.53
2022-12-13T12:26:39.556Z,39.75
2022-12-13T12:29:25.612Z,35.00
2022-12-13T12:32:01.580Z,40.28
2022-12-13T12:34:41.790Z,32.08
2022-12-13T12:37:20.036Z,31.48
2022-12-13T12:40:02.179Z,27.50
2022-12-13T12:43:13.432Z,50.00
2022-12-13T12:45:58.119Z,38.80
2022-12-13T12:49:00.538Z,33.65
2022-12-13T12:51:38.115Z,33.03
2022-12-13T12:54:31.898Z,36.35
2022-12-13T12:57:07.544Z,29.98
2022-12-13T12:59:45.337Z,41.53
2022-12-13T13:02:20.528Z,35.78
2022-12-13T13:04:55.899Z,40.17
2022-12-13T13:07:28.163Z,29.83
2022-12-13T13:09:56.433Z,38.78
2022-12-13T13:12:28.893Z,35.63
2022-12-13T13:14:57.714Z,44.10
2022-12-13T13:17:48.541Z,32.22
2022-12-13T13:20:26.783Z,31.58
2022-12-13T13:23:17.550Z,44.95
2022-12-13T13:26:15.784Z,36.47
2022-12-13T13:28:42.551Z,39.10
2022-12-13T13:31:10.495Z,41.13
2022-12-13T13:33:47.400Z,44.67
2022-12-13T13:36:48.390Z,34.40
2022-12-13T13:39:17.204Z,33.97
2022-12-13T13:42:10.181Z,31.50
2022-12-13T13:44:57.147Z,38.08
2022-12-13T13:47:39.780Z,24.60
2022-12-13T13:50:52.719Z,31.77
2022-12-13T13:53:55.895Z,33.75
2022-12-13T13:56:50.298Z,41.00
2022-12-13T13:59:55.640Z,36.72
2022-12-13T14:02:59.337Z,37.13
2022-12-13T14:06:12.637Z,25.60
2022-12-13T14:09:01.576Z,33.63
2022-12-13T14:12:21.914Z,26.80
2022-12-13T14:15:13.177Z,37.28
2022-12-13T14:18:22.038Z,25.52
2022-12-13T14:21:04.740Z,36.28
2022-12-13T14:23:47.241Z,32.58
2022-12-13T14:26:29.932Z,34.45
2022-12-13T14:29:01.251Z,29.00
2022-12-13T14:31:37.171Z,28.60
2022-12-13T14:34:07.519Z,28.45
2022-12-13T14:36:39.094Z,35.55
2022-12-13T14:39:16.350Z,28.65
2022-12-13T14:41:57.352Z,29.90
2022-12-13T14:44:27.789Z,37.25
2022-12-13T14:46:57.416Z,28.58
2022-12-13T14:49:28.078Z,35.13
2022-12-13T14:52:01.523Z,37.75
2022-12-13T14:54:37.715Z,27.80
2022-12-13T14:57:06.177Z,42.03
2022-12-13T14:59:34.477Z,26.85
2022-12-13T15:02:05.486Z,25.55
2022-12-13T15:04:35.088Z,25.33
2022-12-13T15:07:08.964Z,26.83
2022-12-13T15:09:39.430Z,34.75
2022-12-13T15:12:23.817Z,26.77
2022-12-13T15:14:59.801Z,27.48
2022-12-13T15:17:33.837Z,25.02
2022-12-13T15:20:02.244Z,31.50
2022-12-13T15:22:31.356Z,27.35
2022-12-13T15:24:59.818Z,34.47
2022-12-13T15:27:28.436Z,26.73
2022-12-13T15:29:56.728Z,23.75
2022-12-13T15:32:24.601Z,29.38
2022-12-13T15:34:53.413Z,25.45
2022-12-13T15:37:30.224Z,22.33
2022-12-13T15:40:02.181Z,31.98
2022-12-13T15:42:33.488Z,41.10
2022-12-13T15:45:03.460Z,30.98
2022-12-13T15:47:31.395Z,28.00
2022-12-13T15:50:01.190Z,29.45
2022-12-13T15:52:33.273Z,20.90
2022-12-13T15:55:19.697Z,24.67
2022-12-13T15:57:52.239Z,27.48
2022-12-13T16:00:31.516Z,37.75
2022-12-13T16:03:09.303Z,32.70
2022-12-13T16:05:41.287Z,29.63
2022-12-13T16:08:19.567Z,27.60
2022-12-13T16:10:49.661Z,27.25
2022-12-13T16:13:26.224Z,23.95
2022-12-13T16:16:00.173Z,27.38
2022-12-13T16:18:45.844Z,28.40
2022-12-13T16:21:14.335Z,31.20
2022-12-13T16:23:48.466Z,31.38
2022-12-13T16:26:23.455Z,27.42
2022-12-13T16:28:51.217Z,22.73
2022-12-13T16:31:22.092Z,22.83
2022-12-13T16:33:50.166Z,29.55
2022-12-13T16:36:18.579Z,36.40
2022-12-13T16:38:46.390Z,28.58
2022-12-13T16:41:15.622Z,23.75
2022-12-13T16:43:56.019Z,25.20
2022-12-13T16:47:12.765Z,25.17
2022-12-13T16:49:21.342Z,30.05
2022-12-13T16:51:49.447Z,27.17
2022-12-13T16:54:18.566Z,34.80
2022-12-13T16:56:46.628Z,38.75
2022-12-13T16:59:17.210Z,29.10
2022-12-13T17:01:45.684Z,25.70
2022-12-13T17:04:19.520Z,27.95
2022-12-13T17:06:48.715Z,26.15
2022-12-13T17:09:16.625Z,27.15
2022-12-13T17:11:44.349Z,29.95
2022-12-13T17:14:12.140Z,30.67
2022-12-13T17:16:41.240Z,30.52
2022-12-13T17:19:10.615Z,30.52
2022-12-13T17:21:38.460Z,28.05
2022-12-13T17:24:08.051Z,27.40
2022-12-13T17:26:36.176Z,24.38
2022-12-13T17:29:04.430Z,26.38
2022-12-13T17:31:35.807Z,23.80
2022-12-13T17:34:05.640Z,33.10
2022-12-13T17:36:33.479Z,27.00
2022-12-13T17:39:01.135Z,27.30
2022-12-13T17:41:28.826Z,26.05
2022-12-13T17:43:59.504Z,28.02
2022-12-13T17:46:27.307Z,30.75
2022-12-13T17:48:55.055Z,32.65
2022-12-13T17:51:24.159Z,27.92
2022-12-13T17:53:51.934Z,29.85
2022-12-13T17:56:20.319Z,28.88
2022-12-13T17:58:48.007Z,25.45
2022-12-13T18:01:17.598Z,26.13
2022-12-13T18:03:47.760Z,25.75
2022-12-13T18:06:18.550Z,28.63
2022-12-13T18:08:47.757Z,30.02
2022-12-13T18:11:34.388Z,33.00
2022-12-13T18:14:02.808Z,22.23
2022-12-13T18:16:36.377Z,26.63
2022-12-13T18:19:07.052Z,29.70
2022-12-13T18:21:35.356Z,33.90
2022-12-13T18:24:05.306Z,27.70
2022-12-13T18:26:33.160Z,31.25
2022-12-13T18:29:00.885Z,30.48
2022-12-13T18:31:28.738Z,27.15
2022-12-13T18:33:56.692Z,26.15
2022-12-13T18:36:26.208Z,31.35
2022-12-13T18:38:54.396Z,39.50
2022-12-13T18:41:26.331Z,32.72
2022-12-13T18:43:59.783Z,30.15
2022-12-13T18:46:28.482Z,27.23
2022-12-13T18:48:56.772Z,30.70
2022-12-13T18:51:25.161Z,27.85
2022-12-13T18:53:53.507Z,24.95
2022-12-13T18:56:21.519Z,24.65
2022-12-13T18:58:52.005Z,24.67
2022-12-13T19:01:20.553Z,28.65
2022-12-13T19:03:49.844Z,31.50
2022-12-13T19:06:19.877Z,25.35
2022-12-13T19:08:48.873Z,33.10
2022-12-13T19:11:16.972Z,51.50
2022-12-13T19:13:45.041Z,34.50
2022-12-13T19:16:18.765Z,35.60
2022-12-13T19:18:47.376Z,38.17
2022-12-13T19:21:16.853Z,32.85
2022-12-13T19:23:49.511Z,29.17
2022-12-13T19:26:21.512Z,36.70
2022-12-13T19:28:49.368Z,27.38
2022-12-13T19:31:18.405Z,31.05
2022-12-13T19:33:46.587Z,28.23
2022-12-13T19:36:14.378Z,33.95
2022-12-13T19:38:42.882Z,27.25
2022-12-13T19:41:13.421Z,26.55
2022-12-13T19:43:41.493Z,28.90
2022-12-13T19:46:09.555Z,29.02
2022-12-13T19:48:39.323Z,32.33
2022-12-13T19:51:09.661Z,23.73
2022-12-13T19:53:39.071Z,28.33
2022-12-13T19:56:10.806Z,27.85
2022-12-13T19:58:39.389Z,25.80
2022-12-13T20:01:08.771Z,32.80
2022-12-13T20:03:39.628Z,31.05
2022-12-13T20:06:09.420Z,24.00
2022-12-13T20:08:37.170Z,36.15
2022-12-13T20:11:07.096Z,35.53
2022-12-13T20:13:35.606Z,25.85
2022-12-13T20:16:04.502Z,26.20
2022-12-13T20:18:33.020Z,26.13
2022-12-13T20:21:12.033Z,31.38
2022-12-13T20:23:41.218Z,42.85
2022-12-13T20:26:12.174Z,27.27
2022-12-13T20:28:39.962Z,26.65
2022-12-13T20:31:09.429Z,29.73
2022-12-13T20:33:38.202Z,27.75
2022-12-13T20:36:26.912Z,30.38
2022-12-13T20:38:56.539Z,32.78
2022-12-13T20:41:25.670Z,29.38
2022-12-13T20:43:54.289Z,28.55
2022-12-13T20:46:22.900Z,30.38
2022-12-13T20:48:51.480Z,31.15
2022-12-13T20:51:22.830Z,40.05
2022-12-13T20:53:51.778Z,30.75
2022-12-13T20:56:21.292Z,33.80
2022-12-13T20:58:49.121Z,34.50
2022-12-13T21:01:18.446Z,38.15
2022-12-13T21:03:46.739Z,38.13
2022-12-13T21:06:15.085Z,28.58
2022-12-13T21:08:52.844Z,30.88
2022-12-13T21:11:27.123Z,30.55
2022-12-13T21:14:00.985Z,33.60
2022-12-13T21:16:34.580Z,31.40
2022-12-13T21:19:02.576Z,29.20
2022-12-13T21:21:30.699Z,35.45
2022-12-13T21:23:59.940Z,32.55
2022-12-13T21:26:33.269Z,29.35
2022-12-13T21:29:06.447Z,30.52
2022-12-13T21:31:35.374Z,30.13
2022-12-13T21:34:03.914Z,30.13
2022-12-13T21:36:33.076Z,32.92
2022-12-13T21:39:05.134Z,27.85
2022-12-13T21:41:32.968Z,29.23
2022-12-13T21:44:00.790Z,28.38
2022-12-13T21:46:47.928Z,28.50
2022-12-13T21:49:17.740Z,29.50
2022-12-13T21:51:48.206Z,30.45
2022-12-13T21:54:18.683Z,33.75
2022-12-13T21:57:03.969Z,29.70
2022-12-13T21:59:32.008Z,34.88
2022-12-13T22:02:14.938Z,28.52
2022-12-13T22:04:44.439Z,26.80
2022-12-13T22:07:14.395Z,29.80
2022-12-13T22:09:43.628Z,29.05
2022-12-13T22:12:17.979Z,29.33
2022-12-13T22:14:46.182Z,30.50
2022-12-13T22:17:14.034Z,32.40
2022-12-13T22:19:41.762Z,25.98
2022-12-13T22:22:09.610Z,34.30
2022-12-13T22:24:37.598Z,32.92
2022-12-13T22:27:07.060Z,30.55
2022-12-13T22:29:34.717Z,25.30
2022-12-13T22:32:02.728Z,24.73
2022-12-13T22:34:30.453Z,26.27
2022-12-13T22:36:58.239Z,26.23
2022-12-13T22:39:26.131Z,28.23
2022-12-13T22:41:53.899Z,28.02
2022-12-13T22:44:23.075Z,24.52
2022-12-13T22:46:51.166Z,27.23
2022-12-13T22:49:19.126Z,26.35
2022-12-13T22:51:46.830Z,28.38
2022-12-13T22:54:16.858Z,26.85
2022-12-13T22:56:44.615Z,29.77
2022-12-13T22:59:12.353Z,27.05
2022-12-13T23:01:42.561Z,25.65
2022-12-13T23:04:15.537Z,28.15
2022-12-13T23:06:43.221Z,28.08
2022-12-13T23:09:13.878Z,29.48
2022-12-13T23:12:13.846Z,26.75
2022-12-13T23:14:41.551Z,32.70
2022-12-13T23:17:10.896Z,30.52
2022-12-13T23:19:49.093Z,28.15
2022-12-13T23:22:19.751Z,31.10
2022-12-13T23:24:47.476Z,25.23
2022-12-13T23:27:15.297Z,29.10
2022-12-13T23:29:43.183Z,28.45
2022-12-13T23:32:12.538Z,30.50
2022-12-13T23:34:40.429Z,27.67
2022-12-13T23:37:08.151Z,31.25
2022-12-13T23:39:35.956Z,27.38
2022-12-13T23:42:03.704Z,23.98
2022-12-13T23:44:31.433Z,24.05
2022-12-13T23:46:59.218Z,23.98
2022-12-13T23:49:28.849Z,21.92
2022-12-13T23:51:56.618Z,25.77
2022-12-13T23:54:24.374Z,31.60
2022-12-13T23:56:52.069Z,25.95
2022-12-13T23:59:19.712Z,25.42
